sensor_id;sensor_type;location;lat;lon;timestamp;P1;durP1;ratioP1;P2;durP2;ratioP2
35877;SDS011;21982;49.804;24.072;2023-11-21T00:02:21;8.13;;;4.10;;
35877;SDS011;21982;49.804;24.072;2023-11-21T00:04:47;7.45;;;3.72;;
35877;SDS011;21982;49.804;24.072;2023-11-21T00:07:13;6.72;;;3.70;;
35877;SDS011;21982;49.804;24.072;2023-11-21T00:09:39;9.18;;;4.63;;
35877;SDS011;21982;49.804;24.072;2023-11-21T00:12:05;7.40;;;3.70;;
35877;SDS011;21982;49.804;24.072;2023-11-21T00:14:31;6.57;;;3.15;;
35877;SDS011;21982;49.804;24.072;2023-11-21T00:16:56;7.93;;;4.47;;
35877;SDS011;21982;49.804;24.072;2023-11-21T00:19:21;6.70;;;3.58;;
35877;SDS011;21982;49.804;24.072;2023-11-21T00:21:47;9.23;;;3.78;;
35877;SDS011;21982;49.804;24.072;2023-11-21T00:24:12;7.00;;;2.88;;
35877;SDS011;21982;49.804;24.072;2023-11-21T00:26:39;7.05;;;3.30;;
35877;SDS011;21982;49.804;24.072;2023-11-21T00:29:05;7.75;;;3.35;;
35877;SDS011;21982;49.804;24.072;2023-11-21T00:31:33;10.65;;;3.50;;
35877;SDS011;21982;49.804;24.072;2023-11-21T00:34:02;7.93;;;3.65;;
35877;SDS011;21982;49.804;24.072;2023-11-21T00:36:30;6.78;;;3.50;;
35877;SDS011;21982;49.804;24.072;2023-11-21T00:38:56;7.32;;;3.70;;
35877;SDS011;21982;49.804;24.072;2023-11-21T00:41:22;7.85;;;3.70;;
35877;SDS011;21982;49.804;24.072;2023-11-21T00:43:47;7.57;;;3.55;;
35877;SDS011;21982;49.804;24.072;2023-11-21T00:46:13;7.40;;;3.60;;
35877;SDS011;21982;49.804;24.072;2023-11-21T00:48:38;8.32;;;4.18;;
35877;SDS011;21982;49.804;24.072;2023-11-21T00:51:04;7.43;;;4.38;;
35877;SDS011;21982;49.804;24.072;2023-11-21T00:53:31;9.43;;;4.22;;
35877;SDS011;21982;49.804;24.072;2023-11-21T00:55:56;8.55;;;4.65;;
35877;SDS011;21982;49.804;24.072;2023-11-21T00:58:26;9.23;;;3.83;;
35877;SDS011;21982;49.804;24.072;2023-11-21T01:00:52;7.22;;;2.78;;
35877;SDS011;21982;49.804;24.072;2023-11-21T01:03:18;5.32;;;2.67;;
35877;SDS011;21982;49.804;24.072;2023-11-21T01:05:43;7.25;;;3.70;;
35877;SDS011;21982;49.804;24.072;2023-11-21T01:08:09;5.57;;;2.95;;
35877;SDS011;21982;49.804;24.072;2023-11-21T01:10:35;8.82;;;3.65;;
35877;SDS011;21982;49.804;24.072;2023-11-21T01:13:00;6.22;;;3.47;;
35877;SDS011;21982;49.804;24.072;2023-11-21T01:15:26;6.45;;;3.40;;
35877;SDS011;21982;49.804;24.072;2023-11-21T01:17:52;6.82;;;3.85;;
35877;SDS011;21982;49.804;24.072;2023-11-21T01:20:18;7.07;;;3.42;;
35877;SDS011;21982;49.804;24.072;2023-11-21T01:22:43;7.18;;;3.17;;
35877;SDS011;21982;49.804;24.072;2023-11-21T01:25:09;6.95;;;3.15;;
35877;SDS011;21982;49.804;24.072;2023-11-21T01:27:35;7.57;;;2.88;;
35877;SDS011;21982;49.804;24.072;2023-11-21T01:30:02;5.40;;;2.47;;
35877;SDS011;21982;49.804;24.072;2023-11-21T01:32:28;4.60;;;2.50;;
35877;SDS011;21982;49.804;24.072;2023-11-21T01:34:54;5.45;;;2.58;;
35877;SDS011;21982;49.804;24.072;2023-11-21T01:37:20;5.60;;;2.92;;
35877;SDS011;21982;49.804;24.072;2023-11-21T01:39:46;5.82;;;2.85;;
35877;SDS011;21982;49.804;24.072;2023-11-21T01:42:12;5.10;;;2.50;;
35877;SDS011;21982;49.804;24.072;2023-11-21T01:44:38;5.97;;;2.70;;
35877;SDS011;21982;49.804;24.072;2023-11-21T01:47:04;6.20;;;3.42;;
35877;SDS011;21982;49.804;24.072;2023-11-21T01:49:34;6.43;;;2.95;;
35877;SDS011;21982;49.804;24.072;2023-11-21T01:52:01;10.00;;;3.40;;
35877;SDS011;21982;49.804;24.072;2023-11-21T01:54:27;5.47;;;2.92;;
35877;SDS011;21982;49.804;24.072;2023-11-21T01:56:57;4.75;;;3.10;;
35877;SDS011;21982;49.804;24.072;2023-11-21T01:59:36;5.70;;;3.17;;
35877;SDS011;21982;49.804;24.072;2023-11-21T02:02:03;6.35;;;3.20;;
35877;SDS011;21982;49.804;24.072;2023-11-21T02:04:30;8.88;;;3.53;;
35877;SDS011;21982;49.804;24.072;2023-11-21T02:06:57;5.70;;;2.97;;
35877;SDS011;21982;49.804;24.072;2023-11-21T02:09:24;6.80;;;3.33;;
35877;SDS011;21982;49.804;24.072;2023-11-21T02:11:51;7.18;;;3.20;;
35877;SDS011;21982;49.804;24.072;2023-11-21T02:14:16;5.55;;;2.97;;
35877;SDS011;21982;49.804;24.072;2023-11-21T02:16:45;5.57;;;3.05;;
35877;SDS011;21982;49.804;24.072;2023-11-21T02:19:12;7.22;;;2.75;;
35877;SDS011;21982;49.804;24.072;2023-11-21T02:21:45;6.88;;;3.40;;
35877;SDS011;21982;49.804;24.072;2023-11-21T02:24:10;7.72;;;3.85;;
35877;SDS011;21982;49.804;24.072;2023-11-21T02:26:36;5.95;;;3.72;;
35877;SDS011;21982;49.804;24.072;2023-11-21T02:29:01;6.85;;;3.85;;
35877;SDS011;21982;49.804;24.072;2023-11-21T02:31:29;7.28;;;3.38;;
35877;SDS011;21982;49.804;24.072;2023-11-21T02:33:55;6.45;;;3.10;;
35877;SDS011;21982;49.804;24.072;2023-11-21T02:36:20;6.25;;;3.00;;
35877;SDS011;21982;49.804;24.072;2023-11-21T02:38:46;7.75;;;4.32;;
35877;SDS011;21982;49.804;24.072;2023-11-21T02:41:12;6.35;;;3.75;;
35877;SDS011;21982;49.804;24.072;2023-11-21T02:43:38;7.82;;;3.70;;
35877;SDS011;21982;49.804;24.072;2023-11-21T02:46:04;8.48;;;3.58;;
35877;SDS011;21982;49.804;24.072;2023-11-21T02:48:29;6.05;;;3.22;;
35877;SDS011;21982;49.804;24.072;2023-11-21T02:50:55;8.20;;;4.30;;
35877;SDS011;21982;49.804;24.072;2023-11-21T02:53:21;7.10;;;3.20;;
35877;SDS011;21982;49.804;24.072;2023-11-21T02:55:46;9.23;;;3.67;;
35877;SDS011;21982;49.804;24.072;2023-11-21T02:58:12;7.30;;;3.55;;
35877;SDS011;21982;49.804;24.072;2023-11-21T03:00:37;6.13;;;3.30;;
35877;SDS011;21982;49.804;24.072;2023-11-21T03:03:05;5.53;;;2.95;;
35877;SDS011;21982;49.804;24.072;2023-11-21T03:05:30;9.10;;;3.95;;
35877;SDS011;21982;49.804;24.072;2023-11-21T03:07:56;5.82;;;3.55;;
35877;SDS011;21982;49.804;24.072;2023-11-21T03:10:21;7.70;;;3.40;;
35877;SDS011;21982;49.804;24.072;2023-11-21T03:12:47;6.95;;;3.40;;
35877;SDS011;21982;49.804;24.072;2023-11-21T03:15:12;7.60;;;3.97;;
35877;SDS011;21982;49.804;24.072;2023-11-21T03:17:38;7.95;;;3.50;;
35877;SDS011;21982;49.804;24.072;2023-11-21T03:20:03;5.90;;;3.80;;
35877;SDS011;21982;49.804;24.072;2023-11-21T03:22:29;6.40;;;3.72;;
35877;SDS011;21982;49.804;24.072;2023-11-21T03:24:55;7.00;;;3.50;;
35877;SDS011;21982;49.804;24.072;2023-11-21T03:27:20;6.90;;;3.30;;
35877;SDS011;21982;49.804;24.072;2023-11-21T03:29:46;6.45;;;3.38;;
35877;SDS011;21982;49.804;24.072;2023-11-21T03:32:12;8.15;;;3.95;;
35877;SDS011;21982;49.804;24.072;2023-11-21T03:34:52;5.03;;;3.22;;
35877;SDS011;21982;49.804;24.072;2023-11-21T03:37:19;7.10;;;3.28;;
35877;SDS011;21982;49.804;24.072;2023-11-21T03:39:46;8.48;;;3.97;;
35877;SDS011;21982;49.804;24.072;2023-11-21T03:42:12;7.15;;;3.15;;
35877;SDS011;21982;49.804;24.072;2023-11-21T03:44:37;10.07;;;5.05;;
35877;SDS011;21982;49.804;24.072;2023-11-21T03:47:03;8.35;;;3.22;;
35877;SDS011;21982;49.804;24.072;2023-11-21T03:49:28;8.00;;;3.55;;
35877;SDS011;21982;49.804;24.072;2023-11-21T03:51:54;6.78;;;3.53;;
35877;SDS011;21982;49.804;24.072;2023-11-21T03:54:20;7.13;;;3.60;;
35877;SDS011;21982;49.804;24.072;2023-11-21T03:56:46;5.20;;;2.92;;
35877;SDS011;21982;49.804;24.072;2023-11-21T03:59:11;6.68;;;3.72;;
35877;SDS011;21982;49.804;24.072;2023-11-21T04:01:36;6.70;;;3.55;;
35877;SDS011;21982;49.804;24.072;2023-11-21T04:04:03;8.35;;;4.07;;
35877;SDS011;21982;49.804;24.072;2023-11-21T04:06:29;6.45;;;3.08;;
35877;SDS011;21982;49.804;24.072;2023-11-21T04:08:54;7.00;;;3.45;;
35877;SDS011;21982;49.804;24.072;2023-11-21T04:11:20;8.32;;;3.88;;
35877;SDS011;21982;49.804;24.072;2023-11-21T04:13:45;8.02;;;3.78;;
35877;SDS011;21982;49.804;24.072;2023-11-21T04:16:11;8.43;;;3.78;;
35877;SDS011;21982;49.804;24.072;2023-11-21T04:18:38;7.32;;;3.50;;
35877;SDS011;21982;49.804;24.072;2023-11-21T04:21:07;6.20;;;3.55;;
35877;SDS011;21982;49.804;24.072;2023-11-21T04:23:33;7.72;;;3.90;;
35877;SDS011;21982;49.804;24.072;2023-11-21T04:25:59;8.05;;;4.10;;
35877;SDS011;21982;49.804;24.072;2023-11-21T04:28:25;8.50;;;4.78;;
35877;SDS011;21982;49.804;24.072;2023-11-21T04:30:51;7.00;;;4.07;;
35877;SDS011;21982;49.804;24.072;2023-11-21T04:33:16;7.20;;;3.67;;
35877;SDS011;21982;49.804;24.072;2023-11-21T04:35:42;8.50;;;4.53;;
35877;SDS011;21982;49.804;24.072;2023-11-21T04:38:07;11.25;;;5.28;;
35877;SDS011;21982;49.804;24.072;2023-11-21T04:40:32;10.27;;;4.75;;
35877;SDS011;21982;49.804;24.072;2023-11-21T04:42:58;12.80;;;5.82;;
35877;SDS011;21982;49.804;24.072;2023-11-21T04:45:23;10.05;;;5.18;;
35877;SDS011;21982;49.804;24.072;2023-11-21T04:47:54;8.00;;;4.38;;
35877;SDS011;21982;49.804;24.072;2023-11-21T04:50:19;10.38;;;5.25;;
35877;SDS011;21982;49.804;24.072;2023-11-21T04:52:45;9.07;;;5.45;;
35877;SDS011;21982;49.804;24.072;2023-11-21T04:55:10;9.77;;;5.13;;
35877;SDS011;21982;49.804;24.072;2023-11-21T04:57:36;9.25;;;5.72;;
35877;SDS011;21982;49.804;24.072;2023-11-21T05:00:02;13.77;;;5.30;;
35877;SDS011;21982;49.804;24.072;2023-11-21T05:02:30;10.88;;;5.45;;
35877;SDS011;21982;49.804;24.072;2023-11-21T05:04:57;11.70;;;5.65;;
35877;SDS011;21982;49.804;24.072;2023-11-21T05:07:22;8.80;;;4.22;;
35877;SDS011;21982;49.804;24.072;2023-11-21T05:09:47;8.45;;;4.45;;
35877;SDS011;21982;49.804;24.072;2023-11-21T05:12:13;9.60;;;4.07;;
35877;SDS011;21982;49.804;24.072;2023-11-21T05:14:39;6.22;;;3.92;;
35877;SDS011;21982;49.804;24.072;2023-11-21T05:17:05;6.90;;;3.33;;
35877;SDS011;21982;49.804;24.072;2023-11-21T05:19:30;7.65;;;3.67;;
35877;SDS011;21982;49.804;24.072;2023-11-21T05:21:56;7.20;;;4.38;;
35877;SDS011;21982;49.804;24.072;2023-11-21T05:24:23;7.47;;;3.95;;
35877;SDS011;21982;49.804;24.072;2023-11-21T05:26:53;9.35;;;4.20;;
35877;SDS011;21982;49.804;24.072;2023-11-21T05:29:18;9.48;;;4.85;;
35877;SDS011;21982;49.804;24.072;2023-11-21T05:31:43;8.55;;;4.35;;
35877;SDS011;21982;49.804;24.072;2023-11-21T05:34:09;9.57;;;4.25;;
35877;SDS011;21982;49.804;24.072;2023-11-21T05:36:34;25.55;;;7.28;;
35877;SDS011;21982;49.804;24.072;2023-11-21T05:39:00;36.17;;;9.10;;
35877;SDS011;21982;49.804;24.072;2023-11-21T05:41:25;17.10;;;6.25;;
35877;SDS011;21982;49.804;24.072;2023-11-21T05:43:50;27.70;;;6.90;;
35877;SDS011;21982;49.804;24.072;2023-11-21T05:46:16;12.00;;;4.68;;
35877;SDS011;21982;49.804;24.072;2023-11-21T05:48:41;10.68;;;4.50;;
35877;SDS011;21982;49.804;24.072;2023-11-21T05:51:07;14.98;;;5.32;;
35877;SDS011;21982;49.804;24.072;2023-11-21T05:53:35;23.00;;;6.93;;
35877;SDS011;21982;49.804;24.072;2023-11-21T05:56:00;9.55;;;4.63;;
35877;SDS011;21982;49.804;24.072;2023-11-21T05:58:26;14.82;;;4.88;;
35877;SDS011;21982;49.804;24.072;2023-11-21T06:00:51;10.40;;;4.35;;
35877;SDS011;21982;49.804;24.072;2023-11-21T06:03:16;9.75;;;4.82;;
35877;SDS011;21982;49.804;24.072;2023-11-21T06:05:42;9.50;;;3.97;;
35877;SDS011;21982;49.804;24.072;2023-11-21T06:08:07;9.13;;;3.20;;
35877;SDS011;21982;49.804;24.072;2023-11-21T06:10:33;9.15;;;4.22;;
35877;SDS011;21982;49.804;24.072;2023-11-21T06:12:59;7.75;;;3.58;;
35877;SDS011;21982;49.804;24.072;2023-11-21T06:15:24;7.95;;;3.35;;
35877;SDS011;21982;49.804;24.072;2023-11-21T06:17:51;8.48;;;3.83;;
35877;SDS011;21982;49.804;24.072;2023-11-21T06:20:17;6.70;;;3.30;;
35877;SDS011;21982;49.804;24.072;2023-11-21T06:22:45;7.40;;;2.80;;
35877;SDS011;21982;49.804;24.072;2023-11-21T06:25:14;6.82;;;3.88;;
35877;SDS011;21982;49.804;24.072;2023-11-21T06:27:40;7.93;;;3.72;;
35877;SDS011;21982;49.804;24.072;2023-11-21T06:30:07;6.85;;;3.05;;
35877;SDS011;21982;49.804;24.072;2023-11-21T06:32:35;6.90;;;2.75;;
35877;SDS011;21982;49.804;24.072;2023-11-21T06:35:05;9.70;;;3.97;;
35877;SDS011;21982;49.804;24.072;2023-11-21T06:37:31;7.38;;;3.58;;
35877;SDS011;21982;49.804;24.072;2023-11-21T06:39:59;10.00;;;3.85;;
35877;SDS011;21982;49.804;24.072;2023-11-21T06:42:25;8.52;;;4.25;;
35877;SDS011;21982;49.804;24.072;2023-11-21T06:44:52;7.53;;;3.45;;
35877;SDS011;21982;49.804;24.072;2023-11-21T06:47:18;10.38;;;3.85;;
35877;SDS011;21982;49.804;24.072;2023-11-21T06:49:49;6.80;;;2.78;;
35877;SDS011;21982;49.804;24.072;2023-11-21T06:52:16;7.47;;;3.42;;
35877;SDS011;21982;49.804;24.072;2023-11-21T06:54:41;6.45;;;3.45;;
35877;SDS011;21982;49.804;24.072;2023-11-21T06:57:07;6.78;;;2.92;;
35877;SDS011;21982;49.804;24.072;2023-11-21T06:59:32;8.52;;;3.10;;
35877;SDS011;21982;49.804;24.072;2023-11-21T07:04:39;7.18;;;3.15;;
35877;SDS011;21982;49.804;24.072;2023-11-21T07:07:18;7.43;;;4.00;;
35877;SDS011;21982;49.804;24.072;2023-11-21T07:10:21;6.10;;;3.13;;
35877;SDS011;21982;49.804;24.072;2023-11-21T07:12:46;8.13;;;3.60;;
35877;SDS011;21982;49.804;24.072;2023-11-21T07:15:11;8.50;;;4.18;;
35877;SDS011;21982;49.804;24.072;2023-11-21T07:17:37;12.27;;;5.53;;
35877;SDS011;21982;49.804;24.072;2023-11-21T07:20:03;9.73;;;4.40;;
35877;SDS011;21982;49.804;24.072;2023-11-21T07:22:28;6.72;;;3.58;;
35877;SDS011;21982;49.804;24.072;2023-11-21T07:24:54;10.38;;;4.70;;
35877;SDS011;21982;49.804;24.072;2023-11-21T07:27:21;13.13;;;4.05;;
35877;SDS011;21982;49.804;24.072;2023-11-21T07:29:47;5.57;;;2.80;;
35877;SDS011;21982;49.804;24.072;2023-11-21T07:32:13;8.13;;;3.72;;
35877;SDS011;21982;49.804;24.072;2023-11-21T07:34:39;16.70;;;5.60;;
35877;SDS011;21982;49.804;24.072;2023-11-21T07:37:06;5.63;;;2.20;;
35877;SDS011;21982;49.804;24.072;2023-11-21T07:39:33;7.20;;;2.75;;
35877;SDS011;21982;49.804;24.072;2023-11-21T07:41:59;8.10;;;3.47;;
35877;SDS011;21982;49.804;24.072;2023-11-21T07:44:26;13.07;;;6.22;;
35877;SDS011;21982;49.804;24.072;2023-11-21T07:46:51;11.27;;;5.97;;
35877;SDS011;21982;49.804;24.072;2023-11-21T07:49:17;7.30;;;4.00;;
35877;SDS011;21982;49.804;24.072;2023-11-21T07:51:45;5.65;;;3.03;;
35877;SDS011;21982;49.804;24.072;2023-11-21T07:54:12;6.72;;;3.72;;
35877;SDS011;21982;49.804;24.072;2023-11-21T07:56:37;5.93;;;3.00;;
35877;SDS011;21982;49.804;24.072;2023-11-21T07:59:03;6.97;;;2.80;;
35877;SDS011;21982;49.804;24.072;2023-11-21T08:01:29;6.57;;;2.70;;
35877;SDS011;21982;49.804;24.072;2023-11-21T08:03:55;8.68;;;3.63;;
35877;SDS011;21982;49.804;24.072;2023-11-21T08:06:24;4.32;;;2.60;;
35877;SDS011;21982;49.804;24.072;2023-11-21T08:08:50;6.57;;;3.38;;
35877;SDS011;21982;49.804;24.072;2023-11-21T08:11:16;6.53;;;3.35;;
35877;SDS011;21982;49.804;24.072;2023-11-21T08:13:41;5.07;;;2.63;;
35877;SDS011;21982;49.804;24.072;2023-11-21T08:16:07;5.68;;;2.13;;
35877;SDS011;21982;49.804;24.072;2023-11-21T08:18:32;5.30;;;2.78;;
35877;SDS011;21982;49.804;24.072;2023-11-21T08:20:59;4.20;;;2.45;;
35877;SDS011;21982;49.804;24.072;2023-11-21T08:23:25;5.03;;;2.08;;
35877;SDS011;21982;49.804;24.072;2023-11-21T08:25:52;5.53;;;2.78;;
35877;SDS011;21982;49.804;24.072;2023-11-21T08:28:18;5.50;;;2.85;;
35877;SDS011;21982;49.804;24.072;2023-11-21T08:30:44;5.75;;;2.92;;
35877;SDS011;21982;49.804;24.072;2023-11-21T08:33:09;7.15;;;2.47;;
35877;SDS011;21982;49.804;24.072;2023-11-21T08:35:36;4.00;;;2.38;;
35877;SDS011;21982;49.804;24.072;2023-11-21T08:38:02;4.90;;;2.60;;
35877;SDS011;21982;49.804;24.072;2023-11-21T08:40:27;6.70;;;2.83;;
35877;SDS011;21982;49.804;24.072;2023-11-21T08:42:53;6.22;;;2.78;;
35877;SDS011;21982;49.804;24.072;2023-11-21T08:45:19;7.03;;;3.47;;
35877;SDS011;21982;49.804;24.072;2023-11-21T08:47:47;5.25;;;2.65;;
35877;SDS011;21982;49.804;24.072;2023-11-21T08:50:12;6.68;;;2.67;;
35877;SDS011;21982;49.804;24.072;2023-11-21T08:52:38;9.05;;;4.03;;
35877;SDS011;21982;49.804;24.072;2023-11-21T08:55:05;5.60;;;3.15;;
35877;SDS011;21982;49.804;24.072;2023-11-21T08:57:37;6.00;;;2.92;;
35877;SDS011;21982;49.804;24.072;2023-11-21T09:00:06;6.80;;;3.10;;
35877;SDS011;21982;49.804;24.072;2023-11-21T09:02:36;8.95;;;4.38;;
35877;SDS011;21982;49.804;24.072;2023-11-21T09:05:07;7.43;;;4.18;;
35877;SDS011;21982;49.804;24.072;2023-11-21T09:07:34;8.52;;;3.97;;
35877;SDS011;21982;49.804;24.072;2023-11-21T09:09:59;7.28;;;4.07;;
35877;SDS011;21982;49.804;24.072;2023-11-21T09:12:24;4.35;;;2.55;;
35877;SDS011;21982;49.804;24.072;2023-11-21T09:14:50;5.22;;;3.28;;
35877;SDS011;21982;49.804;24.072;2023-11-21T09:17:16;5.97;;;2.90;;
35877;SDS011;21982;49.804;24.072;2023-11-21T09:19:41;5.00;;;2.50;;
35877;SDS011;21982;49.804;24.072;2023-11-21T09:22:08;5.50;;;2.25;;
35877;SDS011;21982;49.804;24.072;2023-11-21T09:24:34;4.93;;;2.30;;
35877;SDS011;21982;49.804;24.072;2023-11-21T09:26:59;6.28;;;4.25;;
35877;SDS011;21982;49.804;24.072;2023-11-21T09:29:28;7.70;;;3.92;;
35877;SDS011;21982;49.804;24.072;2023-11-21T09:31:54;6.57;;;3.10;;
35877;SDS011;21982;49.804;24.072;2023-11-21T09:34:20;5.88;;;2.88;;
35877;SDS011;21982;49.804;24.072;2023-11-21T09:36:46;5.63;;;3.35;;
35877;SDS011;21982;49.804;24.072;2023-11-21T09:39:12;6.07;;;3.17;;
35877;SDS011;21982;49.804;24.072;2023-11-21T09:41:50;6.80;;;3.55;;
35877;SDS011;21982;49.804;24.072;2023-11-21T09:44:19;6.05;;;3.03;;
35877;SDS011;21982;49.804;24.072;2023-11-21T09:47:07;7.78;;;2.72;;
35877;SDS011;21982;49.804;24.072;2023-11-21T09:49:35;6.45;;;3.15;;
35877;SDS011;21982;49.804;24.072;2023-11-21T09:52:03;4.53;;;2.33;;
35877;SDS011;21982;49.804;24.072;2023-11-21T09:54:31;7.20;;;3.55;;
35877;SDS011;21982;49.804;24.072;2023-11-21T09:56:58;7.45;;;3.58;;
35877;SDS011;21982;49.804;24.072;2023-11-21T09:59:25;5.03;;;2.55;;
35877;SDS011;21982;49.804;24.072;2023-11-21T10:01:55;6.63;;;3.55;;
35877;SDS011;21982;49.804;24.072;2023-11-21T10:04:23;6.45;;;3.08;;
35877;SDS011;21982;49.804;24.072;2023-11-21T10:06:49;6.35;;;3.58;;
35877;SDS011;21982;49.804;24.072;2023-11-21T10:09:15;7.68;;;3.80;;
35877;SDS011;21982;49.804;24.072;2023-11-21T10:11:41;5.70;;;3.33;;
35877;SDS011;21982;49.804;24.072;2023-11-21T10:14:08;6.28;;;3.30;;
35877;SDS011;21982;49.804;24.072;2023-11-21T10:16:39;6.90;;;4.13;;
35877;SDS011;21982;49.804;24.072;2023-11-21T10:19:09;8.52;;;3.75;;
35877;SDS011;21982;49.804;24.072;2023-11-21T10:21:35;8.80;;;4.57;;
35877;SDS011;21982;49.804;24.072;2023-11-21T10:24:03;7.78;;;3.83;;
35877;SDS011;21982;49.804;24.072;2023-11-21T10:26:28;7.78;;;4.20;;
35877;SDS011;21982;49.804;24.072;2023-11-21T10:29:00;6.75;;;3.85;;
35877;SDS011;21982;49.804;24.072;2023-11-21T10:31:28;11.32;;;4.43;;
35877;SDS011;21982;49.804;24.072;2023-11-21T10:33:57;8.93;;;4.55;;
35877;SDS011;21982;49.804;24.072;2023-11-21T10:36:41;8.68;;;3.67;;
35877;SDS011;21982;49.804;24.072;2023-11-21T10:39:07;7.65;;;4.32;;
35877;SDS011;21982;49.804;24.072;2023-11-21T10:41:32;6.90;;;3.63;;
35877;SDS011;21982;49.804;24.072;2023-11-21T10:43:58;7.32;;;3.65;;
35877;SDS011;21982;49.804;24.072;2023-11-21T10:46:23;7.50;;;4.38;;
35877;SDS011;21982;49.804;24.072;2023-11-21T10:48:54;9.70;;;5.75;;
35877;SDS011;21982;49.804;24.072;2023-11-21T10:51:22;8.15;;;4.80;;
35877;SDS011;21982;49.804;24.072;2023-11-21T10:53:49;11.15;;;5.72;;
35877;SDS011;21982;49.804;24.072;2023-11-21T10:56:17;10.80;;;5.85;;
35877;SDS011;21982;49.804;24.072;2023-11-21T10:58:45;9.27;;;5.68;;
35877;SDS011;21982;49.804;24.072;2023-11-21T11:01:11;9.38;;;5.18;;
35877;SDS011;21982;49.804;24.072;2023-11-21T11:03:39;8.25;;;4.18;;
35877;SDS011;21982;49.804;24.072;2023-11-21T11:06:05;12.60;;;5.93;;
35877;SDS011;21982;49.804;24.072;2023-11-21T11:08:36;12.13;;;6.65;;
35877;SDS011;21982;49.804;24.072;2023-11-21T11:11:07;12.23;;;6.50;;
35877;SDS011;21982;49.804;24.072;2023-11-21T11:13:35;10.05;;;5.55;;
35877;SDS011;21982;49.804;24.072;2023-11-21T11:16:02;7.93;;;4.53;;
35877;SDS011;21982;49.804;24.072;2023-11-21T11:18:32;9.40;;;4.72;;
35877;SDS011;21982;49.804;24.072;2023-11-21T11:27:06;10.07;;;4.93;;
35877;SDS011;21982;49.804;24.072;2023-11-21T11:32:46;10.48;;;5.07;;
35877;SDS011;21982;49.804;24.072;2023-11-21T11:35:17;10.20;;;4.80;;
35877;SDS011;21982;49.804;24.072;2023-11-21T11:37:49;6.93;;;4.30;;
35877;SDS011;21982;49.804;24.072;2023-11-21T11:40:14;7.45;;;4.50;;
35877;SDS011;21982;49.804;24.072;2023-11-21T11:42:54;9.73;;;5.22;;
35877;SDS011;21982;49.804;24.072;2023-11-21T11:45:21;13.15;;;6.05;;
35877;SDS011;21982;49.804;24.072;2023-11-21T11:47:47;8.80;;;4.90;;
35877;SDS011;21982;49.804;24.072;2023-11-21T11:50:13;8.60;;;4.78;;
35877;SDS011;21982;49.804;24.072;2023-11-21T11:52:51;9.55;;;5.30;;
35877;SDS011;21982;49.804;24.072;2023-11-21T11:55:21;8.70;;;4.57;;
35877;SDS011;21982;49.804;24.072;2023-11-21T11:57:49;10.00;;;5.32;;
35877;SDS011;21982;49.804;24.072;2023-11-21T12:00:21;10.23;;;6.00;;
35877;SDS011;21982;49.804;24.072;2023-11-21T12:03:00;9.75;;;5.80;;
35877;SDS011;21982;49.804;24.072;2023-11-21T12:05:30;11.35;;;5.35;;
35877;SDS011;21982;49.804;24.072;2023-11-21T12:08:10;8.80;;;5.05;;
35877;SDS011;21982;49.804;24.072;2023-11-21T12:10:38;10.52;;;4.78;;
35877;SDS011;21982;49.804;24.072;2023-11-21T12:13:08;10.45;;;4.90;;
35877;SDS011;21982;49.804;24.072;2023-11-21T12:15:35;7.18;;;3.88;;
35877;SDS011;21982;49.804;24.072;2023-11-21T12:18:01;10.77;;;5.43;;
35877;SDS011;21982;49.804;24.072;2023-11-21T12:20:27;11.90;;;7.28;;
35877;SDS011;21982;49.804;24.072;2023-11-21T12:22:54;12.02;;;6.57;;
35877;SDS011;21982;49.804;24.072;2023-11-21T12:25:24;12.77;;;8.27;;
35877;SDS011;21982;49.804;24.072;2023-11-21T12:27:54;10.60;;;6.35;;
35877;SDS011;21982;49.804;24.072;2023-11-21T12:30:21;11.27;;;6.38;;
35877;SDS011;21982;49.804;24.072;2023-11-21T12:32:52;10.82;;;5.38;;
35877;SDS011;21982;49.804;24.072;2023-11-21T12:35:19;11.15;;;5.57;;
35877;SDS011;21982;49.804;24.072;2023-11-21T12:37:46;12.65;;;7.25;;
35877;SDS011;21982;49.804;24.072;2023-11-21T12:40:14;12.60;;;6.13;;
35877;SDS011;21982;49.804;24.072;2023-11-21T12:42:41;13.57;;;8.50;;
35877;SDS011;21982;49.804;24.072;2023-11-21T12:47:35;11.77;;;6.22;;
35877;SDS011;21982;49.804;24.072;2023-11-21T12:50:02;15.88;;;8.85;;
35877;SDS011;21982;49.804;24.072;2023-11-21T12:52:28;15.25;;;8.13;;
35877;SDS011;21982;49.804;24.072;2023-11-21T12:54:53;11.20;;;6.35;;
35877;SDS011;21982;49.804;24.072;2023-11-21T12:57:19;12.00;;;6.50;;
35877;SDS011;21982;49.804;24.072;2023-11-21T12:59:45;11.00;;;6.22;;
35877;SDS011;21982;49.804;24.072;2023-11-21T13:02:12;10.43;;;6.40;;
35877;SDS011;21982;49.804;24.072;2023-11-21T13:04:40;8.80;;;3.88;;
35877;SDS011;21982;49.804;24.072;2023-11-21T13:07:05;8.20;;;4.53;;
35877;SDS011;21982;49.804;24.072;2023-11-21T13:09:39;7.45;;;3.85;;
35877;SDS011;21982;49.804;24.072;2023-11-21T13:12:04;7.18;;;3.67;;
35877;SDS011;21982;49.804;24.072;2023-11-21T13:14:33;6.15;;;3.38;;
35877;SDS011;21982;49.804;24.072;2023-11-21T13:16:59;7.47;;;4.13;;
35877;SDS011;21982;49.804;24.072;2023-11-21T13:19:25;8.30;;;3.50;;
35877;SDS011;21982;49.804;24.072;2023-11-21T13:21:52;9.73;;;4.47;;
35877;SDS011;21982;49.804;24.072;2023-11-21T13:24:17;6.22;;;3.60;;
35877;SDS011;21982;49.804;24.072;2023-11-21T13:26:43;7.28;;;3.95;;
35877;SDS011;21982;49.804;24.072;2023-11-21T13:29:10;8.35;;;4.10;;
35877;SDS011;21982;49.804;24.072;2023-11-21T13:31:38;6.82;;;2.75;;
35877;SDS011;21982;49.804;24.072;2023-11-21T13:34:04;9.13;;;4.82;;
35877;SDS011;21982;49.804;24.072;2023-11-21T13:36:30;7.18;;;3.28;;
35877;SDS011;21982;49.804;24.072;2023-11-21T13:38:57;8.15;;;3.60;;
35877;SDS011;21982;49.804;24.072;2023-11-21T13:41:24;6.85;;;3.72;;
35877;SDS011;21982;49.804;24.072;2023-11-21T13:43:55;4.95;;;2.83;;
35877;SDS011;21982;49.804;24.072;2023-11-21T13:46:31;10.73;;;5.78;;
35877;SDS011;21982;49.804;24.072;2023-11-21T13:49:02;7.82;;;3.75;;
35877;SDS011;21982;49.804;24.072;2023-11-21T13:51:27;8.70;;;4.78;;
35877;SDS011;21982;49.804;24.072;2023-11-21T13:54:13;6.57;;;3.85;;
35877;SDS011;21982;49.804;24.072;2023-11-21T13:56:39;9.68;;;5.95;;
35877;SDS011;21982;49.804;24.072;2023-11-21T13:59:06;8.18;;;4.18;;
35877;SDS011;21982;49.804;24.072;2023-11-21T14:01:50;6.60;;;3.78;;
35877;SDS011;21982;49.804;24.072;2023-11-21T14:04:28;8.00;;;5.18;;
35877;SDS011;21982;49.804;24.072;2023-11-21T14:07:14;6.75;;;4.13;;
35877;SDS011;21982;49.804;24.072;2023-11-21T14:10:06;5.90;;;3.70;;
35877;SDS011;21982;49.804;24.072;2023-11-21T14:12:39;7.68;;;4.22;;
35877;SDS011;21982;49.804;24.072;2023-11-21T14:15:06;8.88;;;5.05;;
35877;SDS011;21982;49.804;24.072;2023-11-21T14:17:34;11.93;;;5.35;;
35877;SDS011;21982;49.804;24.072;2023-11-21T14:20:00;7.90;;;4.72;;
35877;SDS011;21982;49.804;24.072;2023-11-21T14:22:30;9.45;;;5.47;;
35877;SDS011;21982;49.804;24.072;2023-11-21T14:24:56;10.43;;;4.78;;
35877;SDS011;21982;49.804;24.072;2023-11-21T14:27:24;9.60;;;5.28;;
35877;SDS011;21982;49.804;24.072;2023-11-21T14:29:50;8.90;;;5.03;;
35877;SDS011;21982;49.804;24.072;2023-11-21T14:32:17;8.93;;;5.18;;
35877;SDS011;21982;49.804;24.072;2023-11-21T14:34:43;9.98;;;6.22;;
35877;SDS011;21982;49.804;24.072;2023-11-21T14:37:11;9.82;;;5.22;;
35877;SDS011;21982;49.804;24.072;2023-11-21T14:39:39;8.82;;;4.85;;
35877;SDS011;21982;49.804;24.072;2023-11-21T14:42:09;7.88;;;4.88;;
35877;SDS011;21982;49.804;24.072;2023-11-21T14:44:35;9.30;;;4.13;;
35877;SDS011;21982;49.804;24.072;2023-11-21T14:47:03;11.45;;;5.03;;